x

Santa Monica Basin - 33nm Wsw Of Santa Monica, Ca (46025) Wave Buoy

12:50 - Mon 24th Apr 2017 All times are PDT. -7 hours from GMT.

  • Sig Wave height 5.6ft
  • Swell Direction
  • Peak Period 7s
  • Average Period 6s
  • Wind
    4mph, 9mph gusts
  • Sea Temp 60°f
  • Ar Temp 59°f
  • Sea Pressure 1014.1mb
  • Santa Monica Basin - 33nm Wsw Of Santa Monica, Ca
  • Santa Monica Basin - 33nm Wsw Of Santa Monica, Ca

More Historic Weather Station data

Upgrade to MSW Pro to gain access to the past 30 days of data for over 8000 Wavebouys and Weather Stations around the globe.

Join Pro

Comparision Forecast

View Surf forecast
   
Seg 04/24 12:50 5.5ft 7s 6s 4 9 mph 1014.1mb 60f 59f
12:40 5.5ft  -  6s 2 4 mph 1014.3mb 60f 59f
12:30  -   -   -  2 4 mph 1014.5mb 60f 59f
12:20  -   -   -  2 4 mph 1014.6mb 60f 59f
12:10  -   -   -  2 4 mph 1014.5mb 60f 59f
12:00  -   -   -  4
mph
1014.6mb 60f 60f
11:50 6.5ft 15s 7s 4 7 mph 1014.5mb 60f 60f
11:40 6.5ft  -  7s 2 7 mph 1014.6mb 60f 60f
11:30  -   -   -  2 7 mph 1014.6mb 60f 60f
11:20  -   -   -  4 9 mph 1014.5mb 60f 60f
11:10  -   -   -  4 9 mph 1014.6mb 60f 60f
11:00  -   -   -  4 7 mph 1014.5mb 60f 59f
10:50 6.5ft 14s 7s 7 9 mph 1014.4mb 59f 59f
10:40 6.5ft  -  7s 7 9 mph 1014.5mb 59f 59f
10:30  -   -   -  7 11 mph 1014.5mb 59f 59f
10:20  -   -   -  7 11 mph 1014.4mb 59f 59f
10:10  -   -   -  7 9 mph 1014.4mb 59f 59f
10:00  -   -   -  7 9 mph 1014.3mb 59f 59f
9:50 6ft 14s 7s 7 9 mph 1014.1mb 59f 59f
9:40 6ft  -  7s 7 9 mph 1014mb 59f 59f
9:30  -   -   -  7 9 mph 1014mb 59f 59f
9:20  -   -   -  7 9 mph 1014mb 59f 59f
9:10  -   -   -  7 9 mph 1014mb 59f 59f
9:00  -   -   -  7 9 mph 1013.9mb 59f 59f
8:50 6.5ft 14s 7s 7 9 mph 1013.8mb 59f 59f
8:40  -   -   -  7 9 mph 1013.5mb 59f 59f
8:30  -   -   -  7 11 mph 1013.4mb 59f 59f
8:20  -   -   -  7 11 mph 1013.1mb 59f 59f
8:10  -   -   -  9 11 mph 1013.1mb 59f 58f
8:00  -   -   -  9 13 mph 1013.1mb 59f 58f
7:50 6.5ft 14s 7s 9 13 mph 1012.9mb 59f 58f
7:40 6.5ft  -  7s 9 11 mph 1012.9mb 59f 58f
7:30  -   -   -  11 13 mph 1013mb 59f 58f
7:20  -   -   -  9 11 mph 1012.8mb 59f 58f
7:10  -   -   -  11
mph
1012.8mb 59f 58f
7:00  -   -   -  11 13 mph 1012.5mb 59f 58f
6:50 7ft 14s 8s 9 13 mph 1012.5mb 59f 58f
6:40 7ft  -  8s 9 11 mph 1012.1mb 59f 58f
6:30  -   -   -  7 11 mph 1012mb 59f 58f
6:20  -   -   -  9 11 mph 1012mb 59f 58f
6:10  -   -   -  9
mph
1011.6mb 59f 58f
6:00  -   -   -  9 11 mph 1011.4mb 59f 58f
5:50 6ft 15s 7s 9 11 mph 1011.4mb 59f 58f
5:40 6ft  -  7s 9 11 mph 1011.5mb 59f 58f
5:30  -   -   -  11 13 mph 1011.4mb 59f 58f
5:20  -   -   -  11 13 mph 1011.4mb 59f 58f
5:10  -   -   -  11 16 mph 1011.1mb 59f 58f
5:00  -   -   -  11 13 mph 1011.3mb 59f 58f
4:50 6ft 15s 7s 11 16 mph 1011.4mb 59f 58f
4:40 6ft  -  7s 11 16 mph 1011.1mb 59f 58f
4:30  -   -   -  11 13 mph 1011.1mb 59f 58f
4:20  -   -   -  13 16 mph 1011.1mb 59f 58f
4:10  -   -   -  13 16 mph 1011.3mb 59f 58f
4:00  -   -   -  13 18 mph 1011.4mb 59f 58f
3:50 6ft 15s 7s 11 13 mph 1011mb 59f 58f
3:40 6ft  -  7s 13 16 mph 1011mb 59f 58f
3:30  -   -   -  11 16 mph 1011mb 59f 59f
3:20  -   -   -  13 18 mph 1010.9mb 59f 58f
3:10  -   -   -  13 16 mph 1010.9mb 59f 58f
3:00  -   -   -  13 16 mph 1010.8mb 59f 58f
2:50 5.5ft 15s 7s 11 13 mph 1010.6mb 59f 58f
2:40 5.5ft  -  7s 11 13 mph 1010.6mb 59f 58f
2:30  -   -   -  11 16 mph 1010.9mb 59f 58f
2:20  -   -   -  11
mph
1011mb - 58f
2:10  -   -   -  11 13 mph 1011mb 60f 58f
2:00  -   -   -  9 11 mph 1011.1mb 60f 58f
1:50 6ft 8s 7s 9 11 mph 1011.3mb 60f 58f
1:40 6ft  -  7s 9 13 mph 1011.4mb 60f 58f
1:30  -   -   -  7 11 mph 1011.4mb 60f 58f
1:20  -   -   -  4 7 mph 1011.5mb 60f 58f
1:10  -   -   -  7 9 mph 1011.1mb 60f 58f
1:00  -   -   -  7 9 mph 1011.3mb 60f 59f
12:50 6ft 15s 7s 4 7 mph 1011.1mb 60f 59f
12:40 6ft  -  7s 4
mph
1011.3mb 60f 59f
12:30  -   -   -  4 7 mph 1011mb 60f 59f
12:20  -   -   -  9 11 mph 1011.3mb 60f 59f
12:10  -   -   -  7 11 mph 1011.1mb 60f 60f
12:00  -   -   -  7 11 mph 1011mb 60f 60f
Dom 04/23 11:50 6ft 16s 6s 7 9 mph 1011mb 60f 60f
11:40  -   -   -  4 7 mph 1011.3mb 60f 60f
11:30  -   -   -  2 7 mph 1011mb 60f 59f
11:20  -   -   -   -  4 mph 1011mb 60f 59f
11:10  -   -   -   -  2 mph 1010.9mb 60f 59f
11:00  -   -   -  4 7 mph 1011mb 60f 59f
10:50 6.5ft 7s 6s 2 4 mph 1011mb 60f 59f
10:40 6.5ft  -  6s 4 9 mph 1011mb 60f 59f
10:30  -   -   -  7 9 mph 1011mb 60f 59f
10:20  -   -   -  7 9 mph 1011mb 60f 59f
10:10  -   -   -  7 11 mph 1010.8mb 60f 59f
10:00  -   -   -  7 11 mph 1010.6mb 60f 59f
9:50 7.5ft 15s 7s 9 11 mph 1010.6mb 60f 59f
9:40 7.5ft  -  7s 9 11 mph 1010.6mb 60f 59f
9:30  -   -   -  9 13 mph 1010.5mb 60f 59f
9:20  -   -   -  7 11 mph 1010.5mb 60f 60f
9:10  -   -   -  9 11 mph 1010.3mb 60f 60f
9:00  -   -   -  7 9 mph 1010mb 60f 59f
8:50 7.5ft 13s 6s 9 13 mph 1009.9mb 60f 59f
8:40 7.5ft  -  6s 11 13 mph 1009.9mb 60f 60f
8:30  -   -   -  11 13 mph 1009.9mb 60f 60f
8:20  -   -   -  11 16 mph 1009.6mb 60f 60f
8:10  -   -   -  13 18 mph 1009.6mb 60f 59f
8:00  -   -   -  11 16 mph 1009.5mb 60f 59f
7:50 7.5ft 14s 6s 13 16 mph 1009.3mb 60f 59f
7:40 7.5ft  -  6s 11 16 mph 1009.1mb 60f 59f
7:30  -   -   -  11 16 mph 1009.4mb 60f 59f
7:20  -   -   -  13 18 mph 1009.4mb 60f 59f
7:10  -   -   -  13 18 mph 1009.5mb 60f 60f
7:00  -   -   -  16 18 mph 1009.6mb 60f 60f
6:50 7ft 6s 6s 13 18 mph 1009.6mb 60f 60f
6:40  -   -   -  13 18 mph 1009.6mb 60f 60f
6:30  -   -   -  13 18 mph 1009.6mb 60f 60f
6:20  -   -   -  13 18 mph 1009.8mb - 60f
6:10  -   -   -  13 16 mph 1009.9mb 60f 60f
6:00  -   -   -  11 13 mph 1010mb 61f 60f
5:50 6.5ft 7s 6s 9 13 mph 1010mb 61f 60f
5:40 6.5ft  -  6s 11 13 mph 1010mb 61f 60f
5:30  -   -   -  11 13 mph 1010.1mb 61f 60f
5:20  -   -   -  11 16 mph 1010.1mb 61f 60f
5:10  -   -   -  13 16 mph 1010.1mb 61f 60f
5:00  -   -   -  13 18 mph 1010.1mb 61f 60f
4:50 5.5ft 14s 6s 13 18 mph 1010.3mb 61f 61f
4:40  -   -   -  11 13 mph 1010.4mb 61f 61f
4:30  -   -   -  11 13 mph 1010.3mb 61f 61f
4:20  -   -   -  9 11 mph 1010.4mb 61f 61f
4:10  -   -   -  9 11 mph 1010.5mb 61f 61f
4:00  -   -   -  7 9 mph 1010.5mb 61f 62f
3:50 5.5ft 14s 6s 4 7 mph 1010.8mb 61f 62f
3:40 5.5ft  -  6s 4 7 mph 1011mb 61f 61f
3:30  -   -   -  4
mph
1011mb 61f 61f
3:20  -   -   -  4 7 mph 1011mb 61f 61f
3:10  -   -   -  7 9 mph 1011.3mb 61f 61f
3:00  -   -   -  7 9 mph 1011.3mb 61f 60f
2:50 5ft 15s 7s 9 11 mph 1011.5mb 61f 61f
2:40 5ft  -  7s 9 11 mph 1011.5mb 61f 60f
2:30  -   -   -  9 11 mph 1011.5mb 61f 60f
2:20  -   -   -  11 13 mph 1011.5mb 61f 60f
2:10  -   -   -  11 13 mph 1011.5mb 60f 60f
2:00  -   -   -  11 13 mph 1011.5mb 60f 60f
1:50 5ft 15s 6s 11 13 mph 1011.6mb 60f 60f
1:40 5ft  -  6s 11 13 mph 1011.8mb 60f 60f
1:30  -   -   -  11 13 mph 1011.9mb 60f 60f
1:20  -   -   -  11 13 mph 1012mb 60f 60f
1:10  -   -   -  11 13 mph 1012mb 60f 60f
1:00  -   -   -  11 13 mph 1012mb 60f 60f
12:50 4.5ft 15s 6s 9 11 mph 1011.9mb 60f 60f
12:40 4.5ft  -  6s 9 11 mph 1012.1mb 60f 60f
12:30  -   -   -  7 9 mph 1012.4mb 60f 60f
12:20  -   -   -  7
mph
1012.3mb - 60f
12:10  -   -   -  4 7 mph 1012.3mb 60f 60f
12:00  -   -   -  7
mph
1012.5mb 60f 60f
11:50 4.5ft 15s 6s 7 9 mph 1012.5mb 60f 60f
11:40 4.5ft  -  6s 7 9 mph 1012.4mb 60f 59f
11:30  -   -   -  9 11 mph 1012.5mb 60f 59f
11:20  -   -   -  9 11 mph 1012.5mb 59f 59f
11:10  -   -   -  9 11 mph 1012.3mb 59f 59f
11:00  -   -   -  11
mph
1012.3mb 59f 59f
10:50 4.5ft 15s 6s 11
mph
1012mb 59f 58f
10:40 4.5ft  -  6s 9 11 mph 1011.9mb 59f 58f
10:30  -   -   -  11 13 mph 1011.9mb 59f 58f
10:20  -   -   -  11 13 mph 1011.8mb 59f 58f
10:10  -   -   -  13 16 mph 1011.8mb 59f 58f
10:00  -   -   -  13 16 mph 1011.8mb 59f 58f
9:50 5ft 16s 6s 13 18 mph 1011.8mb 59f 58f
9:40  -   -   -  13 16 mph 1011.9mb 59f 58f
9:30  -   -   -  13 16 mph 1011.8mb 59f 58f
9:20  -   -   -  13 16 mph 1011.9mb 59f 59f
9:10  -   -   -  11 16 mph 1011.6mb 59f 59f
9:00  -   -   -  11 16 mph 1011.5mb 59f 59f
8:50 5ft 6s 6s 9 13 mph 1011.6mb 59f 58f
8:40 5ft  -  6s 7 9 mph 1011.6mb 59f 58f
8:30  -   -   -  9 11 mph 1011.6mb 59f 58f
8:20  -   -   -  7 11 mph 1011.5mb 59f 58f
8:10  -   -   -  7 9 mph 1011.5mb 59f 58f
8:00  -   -   -  7 9 mph 1011mb 59f 58f
7:50 5ft 7s 6s 9 11 mph 1011mb 59f 59f
7:40 5ft  -  6s 7 9 mph 1010.9mb 59f 59f
7:30  -   -   -  7 9 mph 1010.6mb 59f 59f
7:20  -   -   -  7 9 mph 1011mb 59f 59f
7:10  -   -   -  7 11 mph 1010.9mb 59f 58f
7:00  -   -   -  7 9 mph 1010.6mb 59f 58f
6:50 5ft 6s 6s 4 9 mph 1010.4mb 59f 58f
6:40 5ft  -  6s 2 4 mph 1010.3mb 59f 58f
6:30  -   -   -  2 4 mph 1010.1mb 59f 58f
6:20  -   -   -  2 4 mph 1010.9mb 59f 58f
6:10  -   -   -   -  2 mph 1009.8mb 59f 58f
6:00  -   -   -  2 4 mph 1009.8mb 59f 58f
5:50 5ft 7s 6s 4 7 mph 1009.9mb 59f 58f
5:40  -   -   -  7 9 mph 1009.6mb 59f 58f
5:30  -   -   -  7 9 mph 1009.6mb 59f 59f
5:20  -   -   -  7 9 mph 1009.5mb 59f 58f
5:10  -   -   -  7 9 mph 1009.6mb 59f 58f
5:00  -   -   -  7 9 mph 1009.8mb 59f 59f
4:50 5ft 7s 6s 7 9 mph 1009.6mb 59f 59f
4:40  -   -   -  7 9 mph 1009.6mb 60f 59f
4:30  -   -   -  7 11 mph 1009.6mb 60f 59f
4:20  -   -   -  4 7 mph 1009.6mb 60f 59f
4:10  -   -   -  4
mph
1009.6mb 60f 59f
4:00  -   -   -  2
mph
1009.8mb 60f 59f
3:50 5ft 7s 6s 2 4 mph 1009.6mb 60f 59f
3:40  -   -   -   -  2 mph 1009.8mb 60f 59f
3:30  -   -   -   -  mph 1009.9mb 60f 59f
3:20  -   -   -  2 4 mph 1009.9mb 60f 59f
3:10  -   -   -  4 7 mph 1010mb 60f 59f
3:00  -   -   -  7 9 mph 1010mb 60f 59f
2:50 5ft 6s 6s 7 9 mph 1010mb 60f 59f
2:40 5ft  -  6s 2
mph
1010.1mb 60f 60f
2:30  -   -   -  2 4 mph 1010.1mb 60f 60f
2:20  -   -   -  4 7 mph 1010.3mb 59f 60f
2:10  -   -   -  4 7 mph 1010.1mb 59f 60f
2:00  -   -   -  4 9 mph 1010.3mb 60f 60f
1:50 4.5ft 16s 6s 4 7 mph 1010.4mb 60f 60f
1:40 4.5ft  -  6s 4 7 mph 1010.5mb 60f 60f
1:30  -   -   -  4
mph
1010.5mb 60f 60f
1:20  -   -   -  4 7 mph 1010.5mb 60f 60f
1:10  -   -   -  4 7 mph 1010.5mb 60f 60f
1:00  -   -   -  4 7 mph 1010.5mb 60f 60f
12:50 4.5ft 16s 6s 4
mph
1010.5mb 60f 60f
12:40 4.5ft  -  6s 4 7 mph 1010.4mb 60f 60f
12:30  -   -   -  4
mph
1010.4mb 60f 60f
12:20  -   -   -  2 4 mph 1010.5mb 60f 60f
12:10  -   -   -  2 4 mph 1010.5mb 60f 60f
12:00  -   -   -  2 4 mph 1010.5mb 60f 60f
Sáb 04/22 11:50 4ft 16s 6s 4 9 mph 1010.5mb - 61f
11:40 4ft  -  6s 2 4 mph 1010.5mb 60f 60f
11:30  -   -   -  2 4 mph 1010.6mb 60f 60f
11:20  -   -   -  2 4 mph 1010.5mb 60f 60f
11:10  -   -   -   -  2 mph 1010.5mb 60f 60f
11:00  -   -   -  2 4 mph 1010.5mb 60f 60f
10:50 4ft 6s 6s 7
mph
1010.8mb 60f 60f
10:40 4ft  -  6s 4 7 mph 1010.5mb 60f 60f
10:30  -   -   -  4 7 mph 1010.3mb 60f 60f
10:20  -   -   -  4 7 mph 1010.5mb 60f 60f
10:10  -   -   -  2 4 mph 1010.3mb 60f 60f
10:00  -   -   -   -  2 mph 1010.3mb 60f 60f
9:50 4.5ft 16s 6s 2 4 mph 1010.4mb 60f 60f
9:40  -   -   -   -  2 mph 1010.4mb 60f 60f
9:30  -   -   -  2
mph
1010.3mb 60f 60f
9:20  -   -   -   -  2 mph 1010.1mb 60f 60f
9:10  -   -   -   -  2 mph 1010.1mb 60f 60f
9:00  -   -   -  2
mph
1010mb 60f 60f
8:50 4.5ft 7s 6s 2 4 mph 1010mb 60f 61f
8:40 4.5ft  -  6s 2 4 mph 1010mb 61f 61f
8:30  -   -   -  4 7 mph 1010.1mb 60f 61f
8:20  -   -   -  4 9 mph 1010mb 60f 61f
8:10  -   -   -  7 9 mph 1009.9mb 61f 61f
8:00  -   -   -  7 9 mph 1009.9mb 61f 61f
7:50 4.5ft 16s 6s 4 7 mph 1009.6mb 61f 61f
7:40 4.5ft  -  6s 4 7 mph 1009.9mb 61f 62f
7:30  -   -   -  4 7 mph 1010mb 61f 62f
7:20  -   -   -  2 4 mph 1009.9mb 60f 62f
7:10  -   -   -  4
mph
1009.9mb - 62f
7:00  -   -   -  4 7 mph 1010mb 61f 62f
6:50 3.5ft 16s 6s 7 9 mph 1010.1mb 61f 63f
6:40 3.5ft  -  6s 7 9 mph 1010.3mb - 63f
6:30  -   -   -  2 7 mph 1010.4mb 61f 63f
6:20  -   -   -  2
mph
1010.4mb - 63f
6:10  -   -   -  2 4 mph 1011.1mb 60f 64f
6:00  -   -   -  2
mph
1010.5mb 61f 64f
5:40 3.5ft 16s 6s  -  mph - - -
5:30  -   -   -  2 4 mph 1010.5mb 60f 63f
5:20  -   -   -  2 4 mph 1010.5mb 60f 63f
5:10  -   -   -  2 4 mph 1010.5mb 60f 63f
5:00  -   -   -  4
mph
1010.5mb 60f 63f
4:50 3.5ft 16s 6s 4
mph
1010.5mb 60f 63f
4:40 3.5ft  -  6s 4
mph
1010.6mb 60f 63f
4:30  -   -   -  4 7 mph 1010.6mb 59f 63f
4:20  -   -   -  7
mph
1010.6mb 59f 63f
4:10  -   -   -  4 7 mph 1010.6mb 59f 62f
4:00  -   -   -  4 7 mph 1010.8mb 59f 62f
3:50 3.5ft 16s 7s 7 9 mph 1010.9mb 61f 62f
3:40 3.5ft  -  7s 7 9 mph 1011mb 60f 62f
3:30  -   -   -  7 9 mph 1011.1mb 60f 63f
3:20  -   -   -  7 9 mph 1011.3mb 60f 63f
3:10  -   -   -  4 7 mph 1011.3mb 60f 64f
3:00  -   -   -  4 7 mph 1011.4mb 60f 64f
2:50 3.5ft 7s 6s 4 7 mph 1011.5mb 60f 64f
2:40 3.5ft  -  6s  -  2 mph 1011.5mb 60f 64f
2:30  -   -   -  2 4 mph 1011.5mb 60f 63f
2:20  -   -   -  4
mph
1011.5mb 60f 63f
2:10  -   -   -  4 7 mph 1011.5mb 60f 63f
2:00  -   -   -  2 4 mph 1011.6mb 60f 63f
1:50 4.5ft 16s 7s 4 7 mph 1011.6mb 60f 63f
1:40 4.5ft  -  7s 4 7 mph 1011.6mb 60f 63f
1:30  -   -   -  4
mph
1011.8mb 60f 63f
1:20  -   -   -  4 7 mph 1011.6mb 60f 62f
1:10  -   -   -  4
mph
1011.8mb 60f 62f
1:00  -   -   -  4
mph
1011.8mb 60f 62f
12:50 3.5ft 16s 6s 4 7 mph 1011.9mb 60f 62f
12:40 3.5ft  -  6s 4 7 mph 1012mb 60f 61f
12:30  -   -   -  4 7 mph 1012.1mb 60f 61f
12:20  -   -   -  7 9 mph 1012.3mb 60f 61f
12:10  -   -   -  7 9 mph 1012.4mb 60f 61f
12:00  -   -   -  7 9 mph 1012.4mb 60f 60f
11:50 4ft 16s 7s 7 9 mph 1012.5mb 60f 60f
11:40 4ft  -  7s 7
mph
1012.5mb 60f 60f
11:30  -   -   -  7
mph
1012.6mb 60f 60f
11:20  -   -   -  7 9 mph 1012.8mb 60f 60f
11:10  -   -   -  7 9 mph 1012.8mb 59f 60f
11:00  -   -   -  7 9 mph 1012.8mb 59f 60f
10:50 4.5ft 16s 7s 7 9 mph 1012.8mb 59f 60f
10:40 4.5ft  -  7s 7 9 mph 1012.8mb 59f 60f
10:30  -   -   -  7 9 mph 1012.8mb 59f 60f
10:20  -   -   -  4 7 mph 1012.6mb 59f 60f
10:10  -   -   -  4 7 mph 1012.5mb 59f 60f
10:00  -   -   -  4 7 mph 1012.4mb 59f 60f
9:50 4.5ft 16s 6s 4 7 mph 1012.1mb 59f 60f
9:40 4.5ft  -  6s 7
mph
1012.1mb 59f 59f
9:30  -   -   -  7 9 mph 1012.1mb 59f 59f
9:20  -   -   -  7 9 mph 1012.1mb 59f 59f
9:10  -   -   -  7 9 mph 1012mb 59f 59f
9:00  -   -   -  7 9 mph 1012mb 59f 59f
8:50 4ft 6s 6s 9 11 mph 1012.1mb 59f 59f
8:40 4ft  -  6s 9
mph
1012.1mb 59f 59f
8:30  -   -   -  7 9 mph 1012mb 59f 59f
8:20  -   -   -  9 11 mph 1012mb 59f 59f
8:10  -   -   -  7 9 mph 1012mb 59f 60f
8:00  -   -   -  7 11 mph 1012mb 59f 60f
7:50 4.5ft 16s 6s 7 9 mph 1012mb 59f 60f
7:40 4.5ft  -  6s 9 11 mph 1012mb 59f 60f
7:30  -   -   -  11 13 mph 1011.9mb 59f 59f
7:20  -   -   -  11 13 mph 1011.8mb 59f 59f
7:10  -   -   -  9 11 mph 1011.5mb 59f 59f
7:00  -   -   -  9 11 mph 1011.3mb 59f 59f
6:50 4.5ft 17s 6s 9 11 mph 1011mb 59f 59f
6:40  -   -   -  9 11 mph 1010.9mb 59f 59f
6:30  -   -   -  9 11 mph 1011mb 59f 59f
6:20  -   -   -  9 11 mph 1011mb 59f 59f
6:10  -   -   -  9 11 mph 1011.5mb 59f 59f
6:00  -   -   -  7 11 mph 1010.8mb 59f 59f
5:50 4.5ft 8s 6s 7 9 mph 1010.9mb 59f 59f
5:40 4.5ft  -  6s 7
mph
1010.8mb 59f 59f
5:30  -   -   -  7 9 mph 1010.8mb 59f 59f
5:20  -   -   -  7 9 mph 1010.6mb 59f 59f
5:10  -   -   -  7 9 mph 1010.5mb 59f 59f
5:00  -   -   -  9 11 mph 1010.5mb 59f 59f
4:50 5ft 17s 6s 11 13 mph 1010.5mb 59f 59f
4:40  -   -   -  11 13 mph 1010.6mb 58f 59f
4:30  -   -   -  11 13 mph 1010.6mb 58f 59f
4:20  -   -   -  11 13 mph 1010.6mb 58f 59f
4:10  -   -   -  9 13 mph 1010.6mb 58f 59f
4:00  -   -   -  9 11 mph 1010.5mb 58f 60f
3:50 4.5ft 11s 6s 9 11 mph 1010.6mb 58f 60f
3:40 4.5ft  -  6s 7 11 mph 1010.5mb 58f 60f
3:30  -   -   -  9 11 mph 1010.5mb 58f 60f
3:20  -   -   -  7 11 mph 1010.5mb 58f 60f
3:10  -   -   -  4 13 mph 1010.9mb 58f 60f
3:00  -   -   -  7 13 mph 1011mb 58f 60f
2:50 4.5ft 17s 6s 4 11 mph 1010.5mb 58f 61f
2:40  -   -   -  4 11 mph 1010.5mb 58f 61f
2:30  -   -   -  7 11 mph 1010.8mb 58f 60f
2:20  -   -   -  4 13 mph 1010.9mb 58f 60f
2:10  -   -   -  4 9 mph 1010.5mb 58f 61f
2:00  -   -   -  4 9 mph 1010.5mb 58f 61f
1:50 4.5ft 12s 6s 4 9 mph 1010.6mb 58f 61f
1:40 4.5ft  -  6s 9 11 mph 1010.5mb 58f 61f
1:30  -   -   -  11 13 mph 1010.5mb 58f 61f
1:20  -   -   -  13 16 mph 1010.5mb 59f 61f
1:10  -   -   -  11 13 mph 1010.5mb 59f 61f
1:00  -   -   -  11 13 mph 1010.5mb 59f 61f
12:50 4.5ft 12s 6s 11 13 mph 1010.6mb 59f 61f
12:40 4.5ft  -  6s 13 16 mph 1010.8mb 59f 61f
12:30  -   -   -  11 13 mph 1010.8mb 59f 62f
12:20  -   -   -  11 13 mph 1010.9mb 59f 62f
12:10  -   -   -  11 13 mph 1010.9mb 59f 62f
12:00  -   -   -  11 13 mph 1010.9mb 59f 62f
Sex 04/21 11:50 4ft 17s 5s 13 16 mph 1011mb 59f 62f
11:40  -   -   -  16 18 mph 1011mb - 63f
11:30  -   -   -  16 18 mph 1011mb 59f 63f
11:20  -   -   -  16 18 mph 1010.9mb 59f 63f
11:10  -   -   -  18 20 mph 1010.9mb 59f 64f
11:00  -   -   -  18 22 mph 1011.5mb 59f 63f
10:50 4.5ft 17s 6s 18 22 mph 1011mb 59f 64f
10:40  -   -   -  18 22 mph 1011mb 60f 63f
10:30  -   -   -  18 22 mph 1011mb 60f 62f
10:20  -   -   -  16 18 mph 1010.9mb 60f 62f
10:10  -   -   -  13 16 mph 1010.8mb 60f 61f
10:00  -   -   -  13 16 mph 1010.8mb 60f 61f
9:50 4.5ft 17s 6s 13
mph
1010.9mb 60f 61f
9:40 4.5ft  -  6s 13 16 mph 1010.9mb 60f 62f
9:30  -   -   -  13 18 mph 1010.8mb 60f 62f
9:20  -   -   -  13 18 mph 1010.8mb 60f 62f
9:10  -   -   -  13 16 mph 1010.6mb 59f 62f
9:00  -   -   -  11 13 mph 1010.6mb 59f 62f
8:50 5ft 11s 7s 11 13 mph 1010.5mb 59f 62f
8:40 5ft  -  7s 11 16 mph 1010.5mb 59f 62f
8:30  -   -   -  11 13 mph 1010.4mb 59f 61f
8:20  -   -   -  11 13 mph 1010.3mb 60f 61f
8:10  -   -   -  9 11 mph 1010.3mb 60f 61f
8:00  -   -   -  11 13 mph 1010.1mb 60f 62f
7:50 5ft 13s 8s 9 11 mph 1010.1mb 60f 62f
7:40 5ft  -  8s 7 9 mph 1010.1mb 60f 62f
7:30  -   -   -  7 9 mph 1010.1mb 60f 62f
7:20  -   -   -  7 9 mph 1010mb 60f 62f
7:10  -   -   -  7 9 mph 1010mb 61f 62f
7:00  -   -   -  7 9 mph 1010.1mb 61f 62f
6:20  -   -   -  9 11 mph 1010.5mb 61f 64f
6:10  -   -   -  7 9 mph 1010.5mb 61f 64f
6:00  -   -   -  7 9 mph 1010.5mb 62f 64f
5:50 5.5ft 13s 8s 7 9 mph 1010.5mb 61f 64f
5:40  -   -   -  7 9 mph 1010.5mb 61f 64f
5:30  -   -   -  7 9 mph 1010.5mb 61f 64f
5:20  -   -   -  7 9 mph 1010.6mb 61f 64f
5:10  -   -   -  7
mph
1010.5mb 61f 63f
5:00  -   -   -  4 7 mph 1010.8mb 61f 63f
4:50 5.5ft 9s 8s 4 7 mph 1011mb 61f 63f
4:40 5.5ft  -  8s 2 4 mph 1011.1mb 60f 64f
4:30  -   -   -  2 4 mph 1011.4mb 60f 64f
4:20  -   -   -  2 4 mph 1011.4mb 60f 64f
4:10  -   -   -  2 4 mph 1011.5mb 61f 63f
4:00  -   -   -  2 4 mph 1011.6mb 59f 63f
3:50 5.5ft 12s 8s 2 4 mph 1011.6mb 59f 63f
3:40 5.5ft  -  8s 2 4 mph 1012mb 59f 62f
3:30  -   -   -  4 7 mph 1012mb 59f 62f
3:20  -   -   -  4 7 mph 1012mb 60f 62f
3:10  -   -   -  4 7 mph 1012.1mb 60f 62f
3:00  -   -   -  7 9 mph 1012.1mb 60f 62f
2:50 6.5ft 11s 8s 4 7 mph 1012.4mb 60f 62f
2:40 6.5ft  -  8s 4 7 mph 1012.5mb 60f 62f
2:30  -   -   -  7 9 mph 1012.6mb 60f 62f
2:20  -   -   -  7 9 mph 1012.8mb 60f 62f
2:10  -   -   -  7 9 mph 1012.8mb 60f 62f
2:00  -   -   -  7 9 mph 1012.9mb 60f 62f
1:50 6ft 14s 8s 7 9 mph 1013mb 59f 62f
1:40  -   -   -  7 9 mph 1013mb 60f 62f
1:30  -   -   -  7 9 mph 1013.1mb 60f 62f
1:20  -   -   -  7 9 mph 1013.4mb 60f 62f
1:10  -   -   -  7 9 mph 1013.5mb 60f 62f
1:00  -   -   -  7 9 mph 1013.5mb 59f 62f
12:50 6ft 13s 8s 4 7 mph 1013.5mb 59f 62f
12:40  -   -   -  4 7 mph 1013.5mb 59f 62f
12:30  -   -   -  4 7 mph 1013.5mb 59f 62f
12:20  -   -   -  4
mph
1013.5mb 59f 62f
12:10  -   -   -  4 7 mph 1013.6mb 59f 61f
12:00  -   -   -  4 7 mph 1013.5mb 59f 61f
11:50 6ft 13s 8s 4 7 mph 1013.8mb 59f 61f
11:40  -   -   -  4 7 mph 1013.6mb 59f 61f
11:30  -   -   -  4 7 mph 1013.6mb 59f 61f
11:20  -   -   -  2 4 mph 1013.5mb 59f 60f
11:10  -   -   -  2 4 mph 1013.5mb 59f 60f
11:00  -   -   -   -  2 mph 1013.5mb 58f 60f
10:50 6ft 14s 8s  -  2 mph 1013.5mb 58f 60f
10:40 6ft  -  8s  -  2 mph 1013.5mb 58f 60f
10:30  -   -   -  2 4 mph 1013.6mb 58f 59f
10:20  -   -   -  2 4 mph 1013.6mb 58f 59f
10:10  -   -   -  2 4 mph 1013.5mb 58f 59f
10:00  -   -   -  2 4 mph 1013.5mb 58f 59f
9:50 6ft 11s 7s 2 4 mph 1013.5mb 58f 59f
9:40 6ft  -  7s 2 4 mph 1013.4mb 58f 59f
9:30  -   -   -  4
mph
1013.4mb 58f 59f
9:20  -   -   -  4
mph
1013.4mb 58f 59f
9:10  -   -   -  7 9 mph 1013.3mb 58f 60f
9:00  -   -   -  7 9 mph 1013.3mb 58f 59f
8:50 6ft 13s 7s 9 11 mph 1013.3mb 58f 59f
8:40 6ft  -  7s 9 11 mph 1013.3mb 58f 59f
8:30  -   -   -  11 13 mph 1013.3mb 58f 59f
8:20  -   -   -  9 11 mph 1013.5mb 58f 59f
8:10  -   -   -  7 9 mph 1013.5mb 58f 59f
8:00  -   -   -  7 9 mph 1013.5mb 58f 60f
7:50 6ft 14s 7s 7 9 mph 1013.5mb 58f 60f
7:40  -   -   -  4 7 mph 1013.6mb 58f 60f
7:30  -   -   -  4 7 mph 1013.6mb 58f 59f
7:20  -   -   -   -  2 mph 1013.5mb 58f 60f
7:10  -   -   -  2 7 mph 1013.5mb 58f 60f
7:00  -   -   -  4 7 mph 1013.4mb 58f 59f
6:40 5.5ft  -  7s 7 9 mph 1013mb 58f 59f
6:30  -   -   -  9 11 mph 1013mb 58f 59f
6:20  -   -   -  9 13 mph 1012.9mb 58f 60f
6:10  -   -   -  9 11 mph 1012.9mb 58f 60f
6:00  -   -   -  9 11 mph 1012.6mb - 60f
5:50 6ft 14s 7s 9 13 mph 1012.6mb 58f 60f
5:40  -   -   -  9 11 mph 1013mb 58f 60f
5:30  -   -   -  7 9 mph 1013mb 58f 60f
5:20  -   -   -  7 9 mph 1013mb 58f 60f
5:10  -   -   -  9 11 mph 1013mb 58f 60f
5:00  -   -   -  7 9 mph 1013mb 58f 59f
4:50 6.5ft 15s 7s 11 13 mph 1013mb 58f 60f
4:40 6.5ft  -  7s 9 11 mph 1013mb 58f 59f
4:30  -   -   -  7 9 mph 1013mb 58f 59f
4:20  -   -   -  4 9 mph 1013.1mb 58f 60f
4:10  -   -   -  4 9 mph 1013.3mb 58f 60f
4:00  -   -   -  7 9 mph 1013mb 58f 60f
3:50 6ft 14s 7s 4 9 mph 1013mb - 60f
3:40 6ft  -  7s 7 9 mph 1013.3mb 58f 60f
3:30  -   -   -  7 9 mph 1013.3mb 58f 60f
3:20  -   -   -  7 9 mph 1013.5mb 58f 60f
3:10  -   -   -  7 9 mph 1013.5mb 58f 60f
3:00  -   -   -  7 11 mph 1013.6mb 58f 60f
2:50 6ft 14s 7s 9 13 mph 1013.6mb 58f 60f
2:40 6ft  -  7s 11 13 mph 1013.6mb 58f 60f
2:30  -   -   -  9 13 mph 1013.8mb 58f 61f
2:20  -   -   -  9 13 mph 1013.9mb 58f 61f
2:10  -   -   -  9 11 mph 1013.9mb 58f 61f
2:00  -   -   -  7 11 mph 1014mb 58f 61f
1:50 6ft 13s 6s 9 11 mph 1014mb 58f 61f
1:40 6ft  -  6s 7 11 mph 1014mb 58f 60f
1:30  -   -   -  7 11 mph 1014.3mb 58f 61f
1:20  -   -   -  9 11 mph 1014.1mb 58f 61f
1:10  -   -   -  9 11 mph 1014.4mb 58f 61f
1:00  -   -   -  9 11 mph 1014.4mb 58f 61f
12:50 6.5ft 13s 6s 9 11 mph 1014.4mb 58f 61f
12:40 6.5ft  -  6s 7 9 mph 1014.4mb 58f 60f
12:30  -   -   -  9 11 mph 1014.5mb 58f 61f
12:20  -   -   -  9 11 mph 1014.6mb 58f 61f
12:10  -   -   -  11 16 mph 1014.6mb 58f 61f
12:00  -   -   -  11 13 mph 1014.8mb 58f 61f
Qui 04/20 11:50 6.5ft 14s 6s 11 16 mph 1014.9mb 58f 61f
11:40 6.5ft  -  6s 9 13 mph 1014.9mb 58f 61f
11:30  -   -   -  9 11 mph 1014.9mb 58f 61f
11:20  -   -   -  9 11 mph 1014.5mb 58f 61f
11:10  -   -   -  11 16 mph 1014.8mb 58f 61f
11:00  -   -   -  11 13 mph 1014.9mb 58f 61f
10:50 7ft 13s 6s 9 13 mph 1015mb 58f 61f
10:40 7ft  -  6s 11 13 mph 1015mb 58f 61f
10:30  -   -   -  11 16 mph 1015.1mb 58f 61f
10:20  -   -   -  11 16 mph 1015.1mb 58f 61f
10:10  -   -   -  11 13 mph 1015mb 58f 61f
10:00  -   -   -  11 13 mph 1015mb 58f 61f
9:50 6.5ft 14s 6s 9 13 mph 1015.1mb 58f 60f
9:40 6.5ft  -  6s 11 13 mph 1015.1mb 58f 60f
9:30  -   -   -  11 13 mph 1015.3mb 58f 60f
9:20  -   -   -  9 11 mph 1015.1mb 58f 60f
9:10  -   -   -  9 11 mph 1015.1mb 58f 60f